createdAt,value
2018-11-20T00:01:07.751Z,25.60
2018-11-20T00:04:12.226Z,23.10
2018-11-20T00:07:10.674Z,28.17
2018-11-20T00:10:02.749Z,23.07
2018-11-20T00:12:50.685Z,38.43
2018-11-20T00:15:45.171Z,25.37
2018-11-20T00:18:45.601Z,22.50
2018-11-20T00:21:23.089Z,22.10
2018-11-20T00:24:16.563Z,20.70
2018-11-20T00:27:05.759Z,20.97
2018-11-20T00:29:57.969Z,20.77
2018-11-20T00:32:53.168Z,26.33
2018-11-20T00:35:41.126Z,21.30
2018-11-20T00:38:28.951Z,21.77
2018-11-20T00:41:18.192Z,21.13
2018-11-20T00:43:57.961Z,22.37
2018-11-20T00:46:45.949Z,21.57
2018-11-20T00:49:33.916Z,22.43
2018-11-20T00:52:21.920Z,22.60
2018-11-20T00:55:16.363Z,20.90
2018-11-20T00:58:14.642Z,22.33
2018-11-20T01:01:04.752Z,21.47
2018-11-20T01:03:53.947Z,23.37
2018-11-20T01:06:45.688Z,21.37
2018-11-20T01:09:33.512Z,23.70
2018-11-20T01:12:21.884Z,23.93
2018-11-20T01:15:11.960Z,25.60
2018-11-20T01:18:01.424Z,27.60
2018-11-20T01:20:45.779Z,26.57
2018-11-20T01:23:41.034Z,27.77
2018-11-20T01:26:36.122Z,29.47
2018-11-20T01:29:23.813Z,28.23
2018-11-20T01:32:25.366Z,27.50
2018-11-20T01:35:16.684Z,27.63
2018-11-20T01:38:08.933Z,28.73
2018-11-20T01:40:56.567Z,25.73
2018-11-20T01:43:48.386Z,23.77
2018-11-20T01:46:52.633Z,23.93
2018-11-20T01:49:49.036Z,24.37
2018-11-20T01:52:36.790Z,24.47
2018-11-20T01:55:21.131Z,25.93
2018-11-20T01:58:16.206Z,24.23
2018-11-20T02:01:08.398Z,23.77
2018-11-20T02:04:00.840Z,24.60
2018-11-20T02:06:55.412Z,23.47
2018-11-20T02:09:44.600Z,24.40
2018-11-20T02:12:40.842Z,24.10
2018-11-20T02:15:37.549Z,23.63
2018-11-20T02:18:31.045Z,22.93
2018-11-20T02:21:20.229Z,24.57
2018-11-20T02:24:15.288Z,23.87
2018-11-20T02:27:03.138Z,23.70
2018-11-20T02:29:55.360Z,39.43
2018-11-20T02:32:56.756Z,26.30
2018-11-20T02:35:40.973Z,25.30
2018-11-20T02:38:28.828Z,25.90
2018-11-20T02:41:30.389Z,46.90
2018-11-20T02:44:15.121Z,43.77
2018-11-20T02:47:04.593Z,36.57
2018-11-20T02:49:59.491Z,30.93
2018-11-20T02:52:47.203Z,42.23
2018-11-20T02:55:39.451Z,36.70
2018-11-20T02:58:27.227Z,30.50
2018-11-20T03:01:11.409Z,30.97
2018-11-20T03:04:18.687Z,30.70
2018-11-20T03:07:10.754Z,36.00
2018-11-20T03:10:09.268Z,32.37
2018-11-20T03:12:47.785Z,33.47
2018-11-20T03:15:40.229Z,32.10
2018-11-20T03:18:22.023Z,35.63
2018-11-20T03:21:16.910Z,36.83
2018-11-20T03:24:04.700Z,32.03
2018-11-20T03:26:52.789Z,30.43
2018-11-20T03:30:34.856Z,31.77
2018-11-20T03:33:29.988Z,30.70
2018-11-20T03:36:19.253Z,33.37
2018-11-20T03:39:07.070Z,37.70
2018-11-20T03:41:59.025Z,33.30
2018-11-20T03:44:57.164Z,31.77
2018-11-20T03:47:55.469Z,43.67
2018-11-20T03:50:47.208Z,44.30
2018-11-20T03:53:39.326Z,37.30
2018-11-20T03:56:34.292Z,34.77
2018-11-20T03:59:32.424Z,31.10
2018-11-20T04:02:21.721Z,30.73
2018-11-20T04:05:16.786Z,49.40
2018-11-20T04:08:03.045Z,42.47
2018-11-20T04:11:03.107Z,58.57
2018-11-20T04:13:55.053Z,38.70
2018-11-20T04:16:43.269Z,38.20
2018-11-20T04:19:30.969Z,32.30
2018-11-20T04:22:20.176Z,35.13
2018-11-20T04:25:21.480Z,33.33
2018-11-20T04:28:16.613Z,33.97
2018-11-20T04:31:38.361Z,40.13
2018-11-20T04:34:33.684Z,37.23
2018-11-20T04:37:26.602Z,40.17
2018-11-20T04:40:15.982Z,29.13
2018-11-20T04:43:11.969Z,29.43
2018-11-20T04:46:01.183Z,31.47
2018-11-20T04:48:42.655Z,30.03
2018-11-20T04:51:34.610Z,32.07
2018-11-20T04:54:22.429Z,30.07
2018-11-20T04:57:20.583Z,28.13
2018-11-20T05:00:25.033Z,23.07
2018-11-20T05:03:12.827Z,21.67
2018-11-20T05:06:00.709Z,23.17
2018-11-20T05:09:08.434Z,20.13
2018-11-20T05:12:07.386Z,22.27
2018-11-20T05:15:02.425Z,21.97
2018-11-20T05:18:03.658Z,21.83
2018-11-20T05:20:52.420Z,23.90
2018-11-20T05:23:47.909Z,20.90
2018-11-20T05:26:35.699Z,22.27
2018-11-20T05:29:40.322Z,31.40
2018-11-20T05:32:35.374Z,24.73
2018-11-20T05:35:40.283Z,31.97
2018-11-20T05:38:28.188Z,17.97
2018-11-20T05:41:12.579Z,22.93
2018-11-20T05:44:10.958Z,18.00
2018-11-20T05:46:58.758Z,17.30
2018-11-20T05:49:46.304Z,16.57
2018-11-20T05:52:31.536Z,16.93
2018-11-20T05:55:26.679Z,16.73
2018-11-20T05:58:24.933Z,17.73
2018-11-20T06:01:14.175Z,19.93
2018-11-20T06:04:02.470Z,20.43
2018-11-20T06:06:54.711Z,21.13
2018-11-20T06:09:52.981Z,21.37
2018-11-20T06:12:45.034Z,17.00
2018-11-20T06:15:34.422Z,16.77
2018-11-20T06:18:24.829Z,19.40
2018-11-20T06:21:13.882Z,20.60
2018-11-20T06:24:05.719Z,20.27
2018-11-20T06:27:06.915Z,19.03
2018-11-20T06:29:54.592Z,18.60
2018-11-20T06:32:49.884Z,18.77
2018-11-20T06:35:44.804Z,16.70
2018-11-20T06:38:52.054Z,16.83
2018-11-20T06:41:40.039Z,16.80
2018-11-20T06:44:44.269Z,10.87
2018-11-20T06:47:36.358Z,13.20
2018-11-20T06:50:36.116Z,9.10
2018-11-20T06:53:28.487Z,10.57
2018-11-20T06:56:16.297Z,12.10
2018-11-20T06:59:04.291Z,11.47
2018-11-20T07:01:59.188Z,10.33
2018-11-20T07:04:47.087Z,11.97
2018-11-20T07:07:42.405Z,10.30
2018-11-20T07:10:26.894Z,9.27
2018-11-20T07:13:31.270Z,7.43
2018-11-20T07:17:00.583Z,11.03
2018-11-20T07:19:47.743Z,14.20
2018-11-20T07:22:52.331Z,18.10
2018-11-20T07:25:40.463Z,19.60
2018-11-20T07:28:28.434Z,13.60
2018-11-20T07:31:16.336Z,8.23
2018-11-20T07:34:05.353Z,22.60
2018-11-20T07:36:53.175Z,11.07
2018-11-20T07:39:51.048Z,13.77
2018-11-20T07:42:52.614Z,17.47
2018-11-20T07:45:44.591Z,10.27
2018-11-20T07:48:39.774Z,10.17
2018-11-20T07:51:27.895Z,11.30
2018-11-20T07:54:17.252Z,10.87
2018-11-20T07:57:21.779Z,10.00
2018-11-20T08:00:14.082Z,12.90
2018-11-20T08:03:09.369Z,12.17
2018-11-20T08:05:57.204Z,12.50
2018-11-20T08:08:45.150Z,11.10
2018-11-20T08:11:34.366Z,14.63
2018-11-20T08:14:24.326Z,12.13
2018-11-20T08:17:17.140Z,13.23
2018-11-20T08:20:04.775Z,13.87
2018-11-20T08:22:49.330Z,12.97
2018-11-20T08:25:47.448Z,12.37
2018-11-20T08:28:36.708Z,11.70
2018-11-20T08:31:30.035Z,14.90
2018-11-20T08:34:11.258Z,9.10
2018-11-20T08:36:59.114Z,11.20
2018-11-20T08:39:46.934Z,14.83
2018-11-20T08:42:51.266Z,10.87
2018-11-20T08:45:52.577Z,12.87
2018-11-20T08:48:53.744Z,12.67
2018-11-20T08:51:48.887Z,10.70
2018-11-20T08:54:36.713Z,10.47
2018-11-20T08:57:24.806Z,9.63
2018-11-20T09:00:23.377Z,9.60
2018-11-20T09:03:15.836Z,10.27
2018-11-20T09:06:20.184Z,9.93
2018-11-20T09:09:07.987Z,9.67
2018-11-20T09:12:06.564Z,10.00
2018-11-20T09:14:53.970Z,7.10
2018-11-20T09:17:41.962Z,11.37
2018-11-20T09:20:39.837Z,13.67
2018-11-20T09:23:34.785Z,13.80
2018-11-20T09:26:30.194Z,11.67
2018-11-20T09:29:17.835Z,14.83
2018-11-20T09:32:06.235Z,14.00
2018-11-20T09:34:51.116Z,12.67
2018-11-20T09:37:49.421Z,13.07
2018-11-20T09:41:08.572Z,13.10
2018-11-20T09:44:02.801Z,11.90
2018-11-20T09:46:55.067Z,13.60
2018-11-20T09:49:42.852Z,14.90
2018-11-20T09:52:30.636Z,15.07
2018-11-20T09:55:18.321Z,15.00
2018-11-20T09:58:06.651Z,14.03
2018-11-20T10:01:00.594Z,13.97
2018-11-20T10:04:02.248Z,14.10
2018-11-20T10:06:46.818Z,17.60
2018-11-20T10:09:36.028Z,17.07
2018-11-20T10:12:40.183Z,14.10
2018-11-20T10:15:29.410Z,21.80
2018-11-20T10:18:17.223Z,20.60
2018-11-20T10:21:18.843Z,18.77
2018-11-20T10:24:14.163Z,18.87
2018-11-20T10:27:12.582Z,21.23
2018-11-20T10:30:00.561Z,20.87
2018-11-20T10:32:52.876Z,16.67
2018-11-20T10:35:48.029Z,16.27
2018-11-20T10:38:37.295Z,14.27
2018-11-20T10:41:32.506Z,23.97
2018-11-20T10:44:27.683Z,21.40
2018-11-20T10:47:20.085Z,17.07
2018-11-20T10:50:08.110Z,18.53
2018-11-20T10:52:54.624Z,16.63
2018-11-20T10:56:02.177Z,18.07
2018-11-20T10:58:57.578Z,64.17
2018-11-20T11:01:45.662Z,21.13
2018-11-20T11:04:32.913Z,27.57
2018-11-20T11:07:28.064Z,23.90
2018-11-20T11:10:05.616Z,23.90
2018-11-20T11:12:52.978Z,20.67
2018-11-20T11:15:48.184Z,20.07
2018-11-20T11:18:41.757Z,21.27
2018-11-20T11:21:29.703Z,17.37
2018-11-20T11:24:21.516Z,20.00
2018-11-20T11:27:13.475Z,20.13
2018-11-20T11:30:15.041Z,19.53
2018-11-20T11:33:16.528Z,22.07
2018-11-20T11:36:08.804Z,21.10
2018-11-20T11:38:48.624Z,21.57
2018-11-20T11:41:49.773Z,20.60
2018-11-20T11:44:37.662Z,20.23
2018-11-20T11:47:45.290Z,19.47
2018-11-20T11:50:46.814Z,16.43
2018-11-20T11:53:36.127Z,17.70
2018-11-20T11:56:24.158Z,18.33
2018-11-20T11:59:12.328Z,19.97
2018-11-20T12:05:06.686Z,19.20
2018-11-20T12:08:04.738Z,17.77
2018-11-20T12:10:52.545Z,18.93
2018-11-20T12:14:00.053Z,16.50
2018-11-20T12:16:47.993Z,16.47
2018-11-20T12:19:40.346Z,20.97
2018-11-20T12:22:41.645Z,18.90
2018-11-20T12:25:19.419Z,18.87
2018-11-20T12:28:19.347Z,17.93
2018-11-20T12:31:23.744Z,17.33
2018-11-20T12:34:12.929Z,20.50
2018-11-20T12:37:00.846Z,22.13
2018-11-20T12:39:49.877Z,30.20
2018-11-20T12:42:42.061Z,23.33
2018-11-20T12:45:34.180Z,21.57
2018-11-20T12:48:23.167Z,23.87
2018-11-20T12:51:13.062Z,20.13
2018-11-20T12:54:02.279Z,19.53
2018-11-20T12:56:50.073Z,20.00
2018-11-20T12:59:37.503Z,18.97
2018-11-20T13:02:25.542Z,18.97
2018-11-20T13:05:28.646Z,19.87
2018-11-20T13:08:10.259Z,20.13
2018-11-20T13:11:08.230Z,20.20
2018-11-20T13:14:00.286Z,20.43
2018-11-20T13:16:49.515Z,23.17
2018-11-20T13:19:44.547Z,21.67
2018-11-20T13:22:35.677Z,28.67
2018-11-20T13:25:38.748Z,25.60
2018-11-20T13:28:30.860Z,20.67
2018-11-20T13:31:20.673Z,21.80
2018-11-20T13:34:20.943Z,19.73
2018-11-20T13:37:11.830Z,24.90
2018-11-20T13:40:06.724Z,19.70
2018-11-20T13:42:53.519Z,29.13
2018-11-20T13:45:43.628Z,34.97
2018-11-20T13:48:30.696Z,33.27
2018-11-20T13:51:20.268Z,36.20
2018-11-20T13:54:08.313Z,28.97
2018-11-20T13:56:56.507Z,27.33
2018-11-20T13:59:44.260Z,25.00
2018-11-20T14:02:48.871Z,22.17
2018-11-20T14:05:32.899Z,25.53
2018-11-20T14:08:21.973Z,22.77
2018-11-20T14:11:06.197Z,21.30
2018-11-20T14:13:48.740Z,45.93
2018-11-20T14:16:50.124Z,128.00
2018-11-20T14:19:37.970Z,35.00
2018-11-20T14:22:45.324Z,63.63
2018-11-20T14:25:47.063Z,53.90
2018-11-20T14:28:30.295Z,75.40
2018-11-20T14:31:28.762Z,20.87
2018-11-20T14:34:18.764Z,22.33
2018-11-20T14:37:10.791Z,40.90
2018-11-20T14:40:08.755Z,48.20
2018-11-20T14:42:56.543Z,66.53
2018-11-20T14:45:44.560Z,20.50
2018-11-20T14:48:30.804Z,17.33
2018-11-20T14:51:28.512Z,20.77
2018-11-20T14:54:08.504Z,19.97
2018-11-20T14:57:09.847Z,19.63
2018-11-20T14:59:57.757Z,31.10
2018-11-20T15:02:55.832Z,25.57
2018-11-20T15:05:43.985Z,20.73
2018-11-20T15:08:33.168Z,23.10
2018-11-20T15:11:21.328Z,20.93
2018-11-20T15:14:16.324Z,30.97
2018-11-20T15:17:01.723Z,24.63
2018-11-20T15:19:49.618Z,25.03
2018-11-20T15:22:37.277Z,24.23
2018-11-20T15:25:37.631Z,27.77
2018-11-20T15:28:35.711Z,29.23
2018-11-20T15:31:30.659Z,30.23
2018-11-20T15:34:21.581Z,21.30
2018-11-20T15:37:09.440Z,34.00
2018-11-20T15:40:14.067Z,26.90
2018-11-20T15:43:21.507Z,23.23
2018-11-20T15:46:19.539Z,26.10
2018-11-20T15:49:21.735Z,24.53
2018-11-20T15:52:10.022Z,29.70
2018-11-20T15:55:01.762Z,25.97
2018-11-20T15:57:51.125Z,25.97
2018-11-20T16:00:39.108Z,26.13
2018-11-20T16:03:43.665Z,31.20
2018-11-20T16:06:47.984Z,28.47
2018-11-20T16:09:35.955Z,30.90
2018-11-20T16:12:34.953Z,24.50
2018-11-20T16:15:37.248Z,27.93
2018-11-20T16:18:44.722Z,28.67
2018-11-20T16:21:36.668Z,32.30
2018-11-20T16:24:38.209Z,37.10
2018-11-20T16:27:27.418Z,32.40
2018-11-20T16:30:15.162Z,33.87
2018-11-20T16:33:07.400Z,50.33
2018-11-20T16:36:11.778Z,29.77
2018-11-20T16:39:06.724Z,24.63
2018-11-20T16:42:01.597Z,25.80
2018-11-20T16:44:50.828Z,27.73
2018-11-20T16:47:33.408Z,27.83
2018-11-20T16:50:25.284Z,29.57
2018-11-20T16:53:28.049Z,26.70
2018-11-20T16:56:23.114Z,22.77
2018-11-20T16:59:27.608Z,22.00
2018-11-20T17:02:29.740Z,24.00
2018-11-20T17:05:24.755Z,23.23
2018-11-20T17:08:14.403Z,25.60
2018-11-20T17:11:00.926Z,24.50
2018-11-20T17:13:59.058Z,25.43
2018-11-20T17:17:00.306Z,24.97
2018-11-20T17:20:07.800Z,30.13
2018-11-20T17:22:55.809Z,24.97
2018-11-20T17:25:46.179Z,26.80
2018-11-20T17:28:44.436Z,26.97
2018-11-20T17:31:42.502Z,35.20
2018-11-20T17:34:34.745Z,32.00
2018-11-20T17:37:23.159Z,28.13
2018-11-20T17:40:15.387Z,32.00
2018-11-20T17:43:22.509Z,23.37
2018-11-20T17:46:10.581Z,24.33
2018-11-20T17:48:58.910Z,40.17
2018-11-20T17:51:51.031Z,32.43
2018-11-20T17:54:42.975Z,29.53
2018-11-20T17:57:31.220Z,25.43
2018-11-20T18:00:29.433Z,23.67
2018-11-20T18:03:17.372Z,24.60
2018-11-20T18:06:05.266Z,23.73
2018-11-20T18:08:44.388Z,27.40
2018-11-20T18:11:52.018Z,27.03
2018-11-20T18:14:40.960Z,35.27
2018-11-20T18:17:35.760Z,27.10
2018-11-20T18:20:25.177Z,28.83
2018-11-20T18:23:15.953Z,33.97
2018-11-20T18:26:06.790Z,32.13
2018-11-20T18:29:08.038Z,30.83
2018-11-20T18:32:03.143Z,32.90
2018-11-20T18:34:51.138Z,33.07
2018-11-20T18:37:40.415Z,34.27
2018-11-20T18:40:41.820Z,33.83
2018-11-20T18:43:29.569Z,32.70
2018-11-20T18:46:11.753Z,39.23
2018-11-20T18:49:16.250Z,32.57
2018-11-20T18:52:08.210Z,30.50
2018-11-20T18:55:01.320Z,28.67
2018-11-20T18:58:05.500Z,28.13
2018-11-20T19:01:39.385Z,27.00
2018-11-20T19:04:22.082Z,25.87
2018-11-20T19:07:09.383Z,23.40
2018-11-20T19:09:59.077Z,24.63
2018-11-20T19:12:47.486Z,29.23
2018-11-20T19:15:38.695Z,28.60
2018-11-20T19:18:25.672Z,27.63
2018-11-20T19:21:12.535Z,28.57
2018-11-20T19:23:59.598Z,33.23
2018-11-20T19:26:53.805Z,41.70
2018-11-20T19:29:41.665Z,37.83
2018-11-20T19:32:30.084Z,36.33
2018-11-20T19:35:17.012Z,29.77
2018-11-20T19:38:08.151Z,27.90
2018-11-20T19:41:11.617Z,28.43
2018-11-20T19:43:58.675Z,26.53
2018-11-20T19:46:43.785Z,28.47
2018-11-20T19:49:32.145Z,28.33
2018-11-20T19:52:29.529Z,26.73
2018-11-20T19:55:16.355Z,25.03
2018-11-20T19:58:23.029Z,23.97
2018-11-20T20:01:26.462Z,21.83
2018-11-20T20:04:14.934Z,20.93
2018-11-20T20:07:03.321Z,20.97
2018-11-20T20:09:48.427Z,27.83
2018-11-20T20:12:36.861Z,25.60
2018-11-20T20:15:38.789Z,26.60
2018-11-20T20:18:27.192Z,30.10
2018-11-20T20:21:14.301Z,29.13
2018-11-20T20:23:57.855Z,29.50
2018-11-20T20:26:44.742Z,27.00
2018-11-20T20:29:33.117Z,28.60
2018-11-20T20:32:24.027Z,28.13
2018-11-20T20:35:15.106Z,23.33
2018-11-20T20:38:04.176Z,24.60
2018-11-20T20:41:01.480Z,24.10
2018-11-20T20:43:48.716Z,23.47
2018-11-20T20:46:43.194Z,25.83
2018-11-20T20:49:24.426Z,35.30
2018-11-20T20:52:21.718Z,31.33
2018-11-20T20:55:19.395Z,25.33
2018-11-20T20:58:06.400Z,24.23
2018-11-20T21:01:03.641Z,31.87
2018-11-20T21:03:50.966Z,34.33
2018-11-20T21:06:38.616Z,24.93
2018-11-20T21:09:27.562Z,26.80
2018-11-20T21:12:14.857Z,23.27
2018-11-20T21:15:20.841Z,19.60
2018-11-20T21:18:09.765Z,18.90
2018-11-20T21:21:12.656Z,20.13
2018-11-20T21:23:52.756Z,24.70
2018-11-20T21:26:43.855Z,18.13
2018-11-20T21:29:50.528Z,19.43
2018-11-20T21:32:37.619Z,12.13
2018-11-20T21:35:29.197Z,14.07
2018-11-20T21:38:20.456Z,14.33
2018-11-20T21:41:05.827Z,15.63
2018-11-20T21:44:06.462Z,14.57
2018-11-20T21:46:54.902Z,11.60
2018-11-20T21:49:42.195Z,11.00
2018-11-20T21:52:33.370Z,11.33
2018-11-20T21:55:40.138Z,12.00
2018-11-20T21:58:26.197Z,15.10
2018-11-20T22:01:32.566Z,11.93
2018-11-20T22:04:33.303Z,12.93
2018-11-20T22:07:20.493Z,13.60
2018-11-20T22:10:07.501Z,11.97
2018-11-20T22:13:08.071Z,12.40
2018-11-20T22:15:56.500Z,10.77
2018-11-20T22:18:43.712Z,11.60
2018-11-20T22:21:31.286Z,11.53
2018-11-20T22:24:34.682Z,11.00
2018-11-20T22:27:23.182Z,11.03
2018-11-20T22:30:03.223Z,13.50
2018-11-20T22:32:50.117Z,12.47
2018-11-20T22:35:38.626Z,13.53
2018-11-20T22:38:42.220Z,14.80
2018-11-20T22:41:42.619Z,13.03
2018-11-20T22:44:34.005Z,13.37
2018-11-20T22:47:17.044Z,10.83
2018-11-20T22:50:20.862Z,11.03
2018-11-20T22:53:11.919Z,11.23
2018-11-20T22:56:06.084Z,9.30
2018-11-20T22:59:05.195Z,12.40
2018-11-20T23:01:53.748Z,12.33
2018-11-20T23:04:48.510Z,10.27
2018-11-20T23:07:39.846Z,11.10
2018-11-20T23:10:09.274Z,10.73
2018-11-20T23:12:38.738Z,10.70
2018-11-20T23:15:10.759Z,14.40
2018-11-20T23:17:40.193Z,10.50
2018-11-20T23:20:10.731Z,10.87
2018-11-20T23:22:40.217Z,13.23
2018-11-20T23:25:11.497Z,11.77
2018-11-20T23:27:41.146Z,16.37
2018-11-20T23:30:15.261Z,17.47
2018-11-20T23:32:44.732Z,15.07
2018-11-20T23:35:14.278Z,16.90
2018-11-20T23:37:44.040Z,11.23
2018-11-20T23:40:14.231Z,10.00
2018-11-20T23:42:43.637Z,10.80
2018-11-20T23:45:14.214Z,10.97
2018-11-20T23:47:43.669Z,9.93
2018-11-20T23:50:14.227Z,10.63
2018-11-20T23:52:43.673Z,12.23
2018-11-20T23:55:14.351Z,10.47
2018-11-20T23:57:43.799Z,10.57
